createdAt,value
2023-04-05T00:01:53.450Z,8.11
2023-04-05T00:08:13.380Z,8.13
2023-04-05T00:11:14.877Z,8.18
2023-04-05T00:14:16.369Z,8.18
2023-04-05T00:17:18.083Z,8.20
2023-04-05T00:20:20.094Z,8.27
2023-04-05T00:23:22.690Z,8.26
2023-04-05T00:26:24.804Z,8.26
2023-04-05T00:29:30.300Z,8.04
2023-04-05T00:32:31.820Z,8.11
2023-04-05T00:35:33.451Z,8.23
2023-04-05T00:38:35.007Z,8.30
2023-04-05T00:41:36.757Z,8.29
2023-04-05T00:44:38.293Z,8.25
2023-04-05T00:47:42.318Z,8.28
2023-04-05T00:50:43.936Z,8.26
2023-04-05T00:53:46.104Z,8.23
2023-04-05T00:56:47.634Z,8.23
2023-04-05T00:59:49.106Z,8.23
2023-04-05T01:02:58.210Z,8.18
2023-04-05T01:06:09.921Z,8.17
2023-04-05T01:09:16.673Z,8.20
2023-04-05T01:12:20.872Z,8.16
2023-04-05T01:15:22.296Z,8.14
2023-04-05T01:18:24.517Z,8.13
2023-04-05T01:21:29.492Z,8.08
2023-04-05T01:24:40.985Z,8.00
2023-04-05T01:27:57.896Z,7.99
2023-04-05T01:31:18.343Z,7.95
2023-04-05T01:34:19.764Z,7.96
2023-04-05T01:37:27.849Z,7.89
2023-04-05T01:40:33.616Z,7.79
2023-04-05T01:43:35.068Z,7.69
2023-04-05T01:46:36.646Z,7.52
2023-04-05T01:49:38.216Z,7.45
2023-04-05T01:52:39.754Z,7.51
2023-04-05T01:55:41.279Z,7.56
2023-04-05T01:58:43.407Z,7.55
2023-04-05T02:01:44.925Z,7.54
2023-04-05T02:04:46.395Z,7.57
2023-04-05T02:07:47.876Z,7.58
2023-04-05T02:10:49.842Z,7.71
2023-04-05T02:13:51.493Z,7.69
2023-04-05T02:16:56.622Z,7.54
2023-04-05T02:20:09.952Z,7.49
2023-04-05T02:23:11.690Z,7.45
2023-04-05T02:26:13.227Z,7.52
2023-04-05T02:29:14.710Z,7.56
2023-04-05T02:32:16.880Z,7.59
2023-04-05T02:35:19.207Z,7.55
2023-04-05T02:38:20.928Z,7.55
2023-04-05T02:41:23.807Z,7.52
2023-04-05T02:44:25.727Z,7.48
2023-04-05T02:47:28.652Z,7.41
2023-04-05T02:50:33.372Z,6.96
2023-04-05T02:53:35.308Z,7.28
2023-04-05T02:56:40.502Z,7.31
2023-04-05T02:59:46.931Z,7.30
2023-04-05T03:02:48.456Z,7.38
2023-04-05T03:06:01.432Z,7.40
2023-04-05T03:09:09.221Z,7.34
2023-04-05T03:12:12.080Z,7.32
2023-04-05T03:15:16.405Z,7.26
2023-04-05T03:18:19.428Z,7.10
2023-04-05T03:21:21.774Z,6.96
2023-04-05T03:24:32.824Z,7.03
2023-04-05T03:27:38.446Z,6.85
2023-04-05T03:30:44.434Z,6.35
2023-04-05T03:33:52.059Z,6.50
2023-04-05T03:36:53.676Z,6.29
2023-04-05T03:40:06.771Z,6.15
2023-04-05T03:43:09.674Z,6.04
2023-04-05T03:46:11.979Z,7.43
2023-04-05T03:49:13.843Z,7.63
2023-04-05T03:52:15.442Z,7.63
2023-04-05T03:55:19.770Z,7.58
2023-04-05T03:58:22.785Z,7.52
2023-04-05T04:01:24.408Z,7.56
2023-04-05T04:04:26.418Z,7.45
2023-04-05T04:07:28.302Z,7.38
2023-04-05T04:10:29.791Z,7.13
2023-04-05T04:13:33.120Z,6.84
2023-04-05T04:16:38.797Z,6.92
2023-04-05T04:19:58.452Z,6.97
2023-04-05T04:23:20.528Z,6.93
2023-04-05T04:26:37.448Z,6.98
2023-04-05T04:29:56.529Z,7.04
2023-04-05T04:33:09.231Z,7.05
2023-04-05T04:36:42.983Z,6.97
2023-04-05T04:39:57.041Z,6.93
2023-04-05T04:43:33.928Z,7.06
2023-04-05T04:46:55.736Z,6.99
2023-04-05T04:50:21.168Z,6.98
2023-04-05T04:53:24.172Z,6.95
2023-04-05T04:56:26.194Z,6.93
2023-04-05T04:59:29.672Z,6.97
2023-04-05T05:02:31.557Z,6.92
2023-04-05T05:05:33.097Z,7.03
2023-04-05T05:08:34.973Z,7.08
2023-04-05T05:11:36.438Z,7.15
2023-04-05T05:14:41.195Z,7.20
2023-04-05T05:17:42.828Z,7.18
2023-04-05T05:20:44.434Z,7.23
2023-04-05T05:23:46.980Z,7.28
2023-04-05T05:26:48.532Z,7.25
2023-04-05T05:29:52.425Z,7.23
2023-04-05T05:32:54.174Z,7.20
2023-04-05T05:35:55.783Z,7.19
2023-04-05T05:38:57.304Z,7.24
2023-04-05T05:41:58.926Z,7.33
2023-04-05T05:45:05.727Z,7.45
2023-04-05T05:48:07.261Z,7.58
2023-04-05T05:51:11.690Z,7.66
2023-04-05T05:54:13.265Z,7.79
2023-04-05T05:57:14.945Z,8.00
2023-04-05T06:00:17.061Z,8.13
2023-04-05T06:03:19.245Z,8.27
2023-04-05T06:06:22.290Z,8.40
2023-04-05T06:09:23.827Z,8.46
2023-04-05T06:12:28.617Z,8.57
2023-04-05T06:15:31.643Z,8.65
2023-04-05T06:18:33.155Z,8.75
2023-04-05T06:21:34.700Z,8.89
2023-04-05T06:24:36.195Z,8.98
2023-04-05T06:27:37.729Z,8.98
2023-04-05T06:30:39.541Z,9.06
2023-04-05T06:33:41.709Z,9.20
2023-04-05T06:36:43.219Z,9.18
2023-04-05T06:39:44.643Z,9.28
2023-04-05T06:42:46.351Z,9.44
2023-04-05T06:45:52.177Z,9.55
2023-04-05T06:48:53.686Z,9.66
2023-04-05T06:51:55.465Z,9.60
2023-04-05T06:54:56.987Z,9.61
2023-04-05T06:57:58.427Z,9.68
2023-04-05T07:01:01.275Z,9.64
2023-04-05T07:04:02.834Z,9.95
2023-04-05T07:07:04.433Z,10.26
2023-04-05T07:10:06.552Z,10.43
2023-04-05T07:13:08.052Z,10.47
2023-04-05T07:16:09.594Z,10.59
2023-04-05T07:19:11.322Z,10.63
2023-04-05T07:22:12.890Z,10.78
2023-04-05T07:25:14.494Z,10.82
2023-04-05T07:28:16.028Z,10.72
2023-04-05T07:31:17.597Z,10.92
2023-04-05T07:34:24.386Z,10.94
2023-04-05T07:37:27.499Z,10.87
2023-04-05T07:40:29.084Z,10.97
2023-04-05T07:43:30.639Z,11.04
2023-04-05T07:46:32.128Z,10.97
2023-04-05T07:49:33.656Z,11.06
2023-04-05T07:52:35.272Z,11.03
2023-04-05T07:55:39.560Z,11.08
2023-04-05T07:58:42.093Z,11.35
2023-04-05T08:01:43.646Z,11.36
2023-04-05T08:04:46.076Z,11.39
2023-04-05T08:07:48.519Z,11.26
2023-04-05T08:10:50.318Z,11.31
2023-04-05T08:13:53.665Z,11.34
2023-04-05T08:16:55.209Z,11.42
2023-04-05T08:19:56.821Z,11.54
2023-04-05T08:22:58.414Z,11.47
2023-04-05T08:25:59.820Z,11.21
2023-04-05T08:29:01.438Z,11.43
2023-04-05T08:32:03.081Z,11.42
2023-04-05T08:35:05.087Z,11.33
2023-04-05T08:38:07.261Z,11.25
2023-04-05T08:41:16.781Z,11.41
2023-04-05T08:44:22.536Z,11.39
2023-04-05T08:47:24.224Z,11.45
2023-04-05T08:50:27.277Z,11.43
2023-04-05T08:53:29.190Z,11.42
2023-04-05T08:56:35.200Z,11.41
2023-04-05T08:59:39.964Z,11.60
2023-04-05T09:02:45.004Z,11.54
2023-04-05T09:05:49.810Z,11.47
2023-04-05T09:08:51.664Z,11.47
2023-04-05T09:11:53.386Z,12.18
2023-04-05T09:14:55.998Z,11.93
2023-04-05T09:17:57.620Z,10.63
2023-04-05T09:21:04.817Z,10.62
2023-04-05T09:24:06.775Z,10.73
2023-04-05T09:27:18.839Z,11.73
2023-04-05T09:30:28.053Z,12.44
2023-04-05T09:33:29.666Z,12.49
2023-04-05T09:36:33.583Z,12.58
2023-04-05T09:39:35.111Z,12.77
2023-04-05T09:42:54.502Z,12.61
2023-04-05T09:45:56.047Z,12.47
2023-04-05T09:48:57.815Z,12.58
2023-04-05T09:51:59.366Z,12.79
2023-04-05T09:55:04.884Z,12.67
2023-04-05T09:58:12.006Z,13.00
2023-04-05T10:01:17.316Z,13.10
2023-04-05T10:04:24.706Z,12.92
2023-04-05T10:07:26.364Z,14.16
2023-04-05T10:10:29.160Z,13.86
2023-04-05T10:13:31.002Z,13.76
2023-04-05T10:16:36.574Z,13.85
2023-04-05T10:19:53.044Z,13.55
2023-04-05T10:23:11.633Z,13.73
2023-04-05T10:26:36.987Z,13.91
2023-04-05T10:30:03.674Z,13.72
2023-04-05T10:33:38.873Z,13.86
2023-04-05T10:36:58.559Z,13.88
2023-04-05T10:40:04.365Z,14.12
2023-04-05T10:43:11.974Z,13.86
2023-04-05T10:46:22.363Z,13.97
2023-04-05T10:49:29.838Z,14.02
2023-04-05T10:52:32.991Z,13.97
2023-04-05T10:55:36.043Z,14.19
2023-04-05T10:58:40.559Z,14.24
2023-04-05T11:01:42.582Z,14.33
2023-04-05T11:04:44.353Z,14.35
2023-04-05T11:07:49.611Z,14.21
2023-04-05T11:10:53.264Z,14.20
2023-04-05T11:13:56.924Z,14.41
2023-04-05T11:16:59.696Z,14.52
2023-04-05T11:20:06.206Z,14.93
2023-04-05T11:23:08.376Z,15.66
2023-04-05T11:26:10.200Z,15.53
2023-04-05T11:29:12.123Z,15.26
2023-04-05T11:32:13.982Z,15.28
2023-04-05T11:35:23.278Z,15.70
2023-04-05T11:38:24.791Z,15.69
2023-04-05T11:41:33.491Z,15.71
2023-04-05T11:44:46.798Z,15.70
2023-04-05T11:47:48.373Z,15.48
2023-04-05T11:50:51.225Z,15.58
2023-04-05T11:53:58.902Z,15.43
2023-04-05T11:57:03.838Z,15.31
2023-04-05T12:00:07.858Z,15.38
2023-04-05T12:03:17.074Z,13.81
2023-04-05T12:06:22.572Z,13.37
2023-04-05T12:09:30.059Z,14.68
2023-04-05T12:12:36.388Z,13.59
2023-04-05T12:15:40.809Z,13.51
2023-04-05T12:18:42.548Z,13.59
2023-04-05T12:21:44.228Z,13.65
2023-04-05T12:24:46.005Z,13.91
2023-04-05T12:27:47.888Z,14.09
2023-04-05T12:30:54.227Z,13.86
2023-04-05T12:33:59.357Z,13.95
2023-04-05T12:37:03.096Z,13.94
2023-04-05T12:40:05.437Z,14.05
2023-04-05T12:43:08.428Z,14.35
2023-04-05T12:46:17.590Z,14.25
2023-04-05T12:49:19.290Z,14.09
2023-04-05T12:52:23.649Z,14.11
2023-04-05T12:55:27.146Z,14.08
2023-04-05T12:58:37.920Z,14.30
2023-04-05T13:01:39.442Z,14.36
2023-04-05T13:04:40.960Z,14.56
2023-04-05T13:07:42.403Z,14.69
2023-04-05T13:10:46.158Z,16.09
2023-04-05T13:13:47.625Z,16.00
2023-04-05T13:16:49.045Z,16.01
2023-04-05T13:19:50.580Z,15.71
2023-04-05T13:22:52.105Z,15.74
2023-04-05T13:25:53.548Z,16.25
2023-04-05T13:28:55.446Z,16.37
2023-04-05T13:31:56.926Z,16.22
2023-04-05T13:34:58.420Z,16.49
2023-04-05T13:38:03.879Z,16.52
2023-04-05T13:41:06.253Z,16.32
2023-04-05T13:44:07.730Z,16.29
2023-04-05T13:47:09.357Z,16.47
2023-04-05T13:50:10.908Z,16.83
2023-04-05T13:53:12.424Z,16.40
2023-04-05T13:56:13.889Z,16.40
2023-04-05T13:59:17.057Z,16.47
2023-04-05T14:02:20.664Z,16.28
2023-04-05T14:05:22.177Z,16.90
2023-04-05T14:08:23.691Z,16.95
2023-04-05T14:11:25.889Z,17.09
2023-04-05T14:14:27.811Z,17.09
2023-04-05T14:17:29.452Z,16.73
2023-04-05T14:20:31.084Z,16.69
2023-04-05T14:23:32.996Z,16.68
2023-04-05T14:26:34.573Z,16.95
2023-04-05T14:29:36.100Z,17.63
2023-04-05T14:32:37.794Z,17.51
2023-04-05T14:35:39.556Z,17.22
2023-04-05T14:38:41.272Z,17.40
2023-04-05T14:41:44.018Z,18.10
2023-04-05T14:44:45.746Z,18.68
2023-04-05T14:47:47.446Z,19.45
2023-04-05T14:50:49.036Z,19.75
2023-04-05T14:53:51.509Z,19.89
2023-04-05T14:56:53.031Z,18.78
2023-04-05T14:59:54.650Z,17.88
2023-04-05T15:02:56.383Z,17.51
2023-04-05T15:05:58.377Z,17.52
2023-04-05T15:08:59.870Z,17.41
2023-04-05T15:12:02.238Z,17.12
2023-04-05T15:15:04.186Z,17.30
2023-04-05T15:18:07.891Z,17.41
2023-04-05T15:21:09.569Z,17.23
2023-04-05T15:24:11.583Z,16.69
2023-04-05T15:27:13.056Z,16.87
2023-04-05T15:30:14.932Z,17.51
2023-04-05T15:33:17.569Z,17.81
2023-04-05T15:36:19.090Z,18.56
2023-04-05T15:39:21.105Z,20.85
2023-04-05T15:42:22.828Z,23.38
2023-04-05T15:45:24.361Z,24.97
2023-04-05T15:48:25.881Z,26.05
2023-04-05T15:51:27.459Z,29.22
2023-04-05T15:54:28.951Z,29.17
2023-04-05T15:57:30.700Z,30.06
2023-04-05T16:00:33.447Z,30.53
2023-04-05T16:03:35.020Z,31.98
2023-04-05T16:06:36.686Z,31.85
2023-04-05T16:09:38.213Z,31.80
2023-04-05T16:12:39.779Z,32.34
2023-04-05T16:15:41.364Z,32.19
2023-04-05T16:18:43.034Z,32.23
2023-04-05T16:21:44.574Z,32.20
2023-04-05T16:24:46.130Z,32.57
2023-04-05T16:27:47.756Z,32.43
2023-04-05T16:30:51.606Z,32.56
2023-04-05T16:33:53.732Z,32.85
2023-04-05T16:36:55.354Z,32.85
2023-04-05T16:39:56.953Z,32.79
2023-04-05T16:42:58.557Z,32.74
2023-04-05T16:46:00.248Z,32.91
2023-04-05T16:49:02.091Z,32.40
2023-04-05T16:52:03.899Z,32.42
2023-04-05T16:55:05.804Z,31.81
2023-04-05T16:58:07.491Z,32.03
2023-04-05T17:01:09.116Z,32.04
2023-04-05T17:04:10.880Z,31.67
2023-04-05T17:07:12.489Z,31.31
2023-04-05T17:10:14.108Z,30.35
2023-04-05T17:13:15.981Z,29.94
2023-04-05T17:16:18.167Z,29.29
2023-04-05T17:19:19.839Z,28.77
2023-04-05T17:22:21.374Z,28.06
2023-04-05T17:25:22.881Z,26.89
2023-04-05T17:28:25.727Z,26.47
2023-04-05T17:31:27.557Z,25.80
2023-04-05T17:34:29.098Z,24.32
2023-04-05T17:37:30.596Z,22.41
2023-04-05T17:40:32.247Z,19.39
2023-04-05T17:43:33.796Z,18.17
2023-04-05T17:46:42.910Z,17.23
2023-04-05T17:49:46.193Z,16.65
2023-04-05T17:52:47.787Z,16.34
2023-04-05T17:55:49.241Z,16.03
2023-04-05T17:58:50.895Z,15.65
2023-04-05T18:01:53.738Z,15.22
2023-04-05T18:04:55.458Z,15.00
2023-04-05T18:07:57.100Z,14.81
2023-04-05T18:10:59.778Z,14.56
2023-04-05T18:14:01.395Z,14.22
2023-04-05T18:17:06.821Z,14.03
2023-04-05T18:20:08.839Z,13.89
2023-04-05T18:23:10.613Z,13.63
2023-04-05T18:26:14.277Z,13.35
2023-04-05T18:29:16.231Z,13.06
2023-04-05T18:32:17.957Z,12.96
2023-04-05T18:35:19.626Z,12.82
2023-04-05T18:38:21.704Z,12.43
2023-04-05T18:41:23.378Z,12.09
2023-04-05T18:44:24.963Z,11.90
2023-04-05T18:47:26.771Z,11.75
2023-04-05T18:50:28.350Z,11.88
2023-04-05T18:53:29.860Z,11.71
2023-04-05T18:56:31.457Z,11.62
2023-04-05T18:59:33.006Z,11.52
2023-04-05T19:02:34.642Z,11.37
2023-04-05T19:05:36.250Z,11.29
2023-04-05T19:08:37.924Z,11.03
2023-04-05T19:11:39.447Z,10.82
2023-04-05T19:14:42.462Z,10.59
2023-04-05T19:17:44.133Z,10.44
2023-04-05T19:20:45.951Z,10.19
2023-04-05T19:23:47.574Z,10.11
2023-04-05T19:26:49.105Z,10.08
2023-04-05T19:29:50.703Z,10.02
2023-04-05T19:32:53.878Z,9.81
2023-04-05T19:35:57.507Z,9.77
2023-04-05T19:38:59.246Z,9.70
2023-04-05T19:42:00.785Z,9.59
2023-04-05T19:45:02.338Z,9.55
2023-04-05T19:48:27.644Z,9.71
2023-04-05T19:51:29.315Z,9.80
2023-04-05T19:54:31.082Z,9.72
2023-04-05T19:57:42.202Z,9.75
2023-04-05T20:00:52.463Z,9.74
2023-04-05T20:03:54.312Z,9.60
2023-04-05T20:06:56.180Z,9.51
2023-04-05T20:09:57.760Z,9.42
2023-04-05T20:12:59.295Z,9.36
2023-04-05T20:16:00.944Z,9.19
2023-04-05T20:19:02.503Z,9.22
2023-04-05T20:22:07.080Z,9.09
2023-04-05T20:25:38.763Z,8.92
2023-04-05T20:28:41.960Z,8.90
2023-04-05T20:31:43.783Z,8.95
2023-04-05T20:34:46.104Z,8.89
2023-04-05T20:37:49.740Z,8.86
2023-04-05T20:40:51.554Z,8.91
2023-04-05T20:43:54.432Z,8.84
2023-04-05T20:46:57.756Z,8.57
2023-04-05T20:50:00.628Z,8.37
2023-04-05T20:53:05.667Z,8.23
2023-04-05T20:56:10.281Z,8.20
2023-04-05T20:59:12.514Z,8.01
2023-04-05T21:02:14.257Z,7.95
2023-04-05T21:05:15.813Z,8.29
2023-04-05T21:08:17.548Z,8.29
2023-04-05T21:11:19.145Z,8.33
2023-04-05T21:14:20.892Z,8.28
2023-04-05T21:17:22.398Z,8.25
2023-04-05T21:20:23.937Z,8.19
2023-04-05T21:23:27.221Z,8.23
2023-04-05T21:26:28.802Z,8.19
2023-04-05T21:29:30.372Z,8.06
2023-04-05T21:32:32.051Z,7.87
2023-04-05T21:35:34.064Z,7.83
2023-04-05T21:38:35.853Z,7.80
2023-04-05T21:41:37.308Z,7.79
2023-04-05T21:44:38.805Z,7.64
2023-04-05T21:47:40.379Z,7.52
2023-04-05T21:50:42.011Z,7.53
2023-04-05T21:53:43.497Z,7.63
2023-04-05T21:56:46.054Z,7.65
2023-04-05T21:59:47.611Z,7.61
2023-04-05T22:02:49.114Z,7.45
2023-04-05T22:05:50.697Z,7.06
2023-04-05T22:08:53.754Z,6.91
2023-04-05T22:11:56.987Z,6.93
2023-04-05T22:14:58.603Z,6.93
2023-04-05T22:18:00.268Z,6.93
2023-04-05T22:21:01.910Z,6.92
2023-04-05T22:24:03.700Z,6.83
2023-04-05T22:27:05.189Z,6.81
2023-04-05T22:30:08.181Z,6.88
2023-04-05T22:33:12.574Z,6.92
2023-04-05T22:36:14.558Z,6.83
2023-04-05T22:39:16.281Z,6.86
2023-04-05T22:42:17.846Z,6.78
2023-04-05T22:45:19.384Z,6.57
2023-04-05T22:48:21.075Z,6.47
2023-04-05T22:51:22.583Z,6.50
2023-04-05T22:54:24.107Z,6.49
2023-04-05T22:57:25.645Z,6.51
2023-04-05T23:00:27.171Z,6.48
2023-04-05T23:03:28.883Z,6.47
2023-04-05T23:06:31.048Z,6.40
2023-04-05T23:09:32.545Z,6.32
2023-04-05T23:12:34.086Z,6.35
2023-04-05T23:15:35.708Z,6.18
2023-04-05T23:18:37.332Z,6.04
2023-04-05T23:21:38.926Z,5.96
2023-04-05T23:24:40.540Z,5.84
2023-04-05T23:27:42.055Z,5.72
2023-04-05T23:30:43.684Z,5.54
2023-04-05T23:33:45.310Z,5.45
2023-04-05T23:36:46.864Z,5.41
2023-04-05T23:39:48.400Z,5.51
2023-04-05T23:42:50.531Z,5.49
2023-04-05T23:45:52.099Z,5.58
2023-04-05T23:48:53.653Z,5.55
2023-04-05T23:51:55.793Z,5.50
2023-04-05T23:54:57.269Z,5.54
2023-04-05T23:58:00.124Z,5.54
